sensor_id;sensor_type;location;lat;lon;timestamp;P1;durP1;ratioP1;P2;durP2;ratioP2
36995;SDS011;22905;50.340;10.776;2023-04-21T00:00:39;27.83;;;14.70;;
36995;SDS011;22905;50.340;10.776;2023-04-21T00:05:39;31.65;;;13.98;;
36995;SDS011;22905;50.340;10.776;2023-04-21T00:10:41;30.98;;;14.80;;
36995;SDS011;22905;50.340;10.776;2023-04-21T00:15:42;29.02;;;15.90;;
36995;SDS011;22905;50.340;10.776;2023-04-21T00:20:42;27.87;;;14.60;;
36995;SDS011;22905;50.340;10.776;2023-04-21T00:25:43;29.00;;;14.10;;
36995;SDS011;22905;50.340;10.776;2023-04-21T00:30:44;24.42;;;12.13;;
36995;SDS011;22905;50.340;10.776;2023-04-21T00:35:44;27.13;;;15.05;;
36995;SDS011;22905;50.340;10.776;2023-04-21T00:40:44;23.55;;;13.63;;
36995;SDS011;22905;50.340;10.776;2023-04-21T00:45:45;29.95;;;13.68;;
36995;SDS011;22905;50.340;10.776;2023-04-21T00:50:48;25.45;;;13.70;;
36995;SDS011;22905;50.340;10.776;2023-04-21T00:55:49;27.87;;;14.27;;
36995;SDS011;22905;50.340;10.776;2023-04-21T01:00:49;27.05;;;13.85;;
36995;SDS011;22905;50.340;10.776;2023-04-21T01:05:49;28.70;;;14.07;;
36995;SDS011;22905;50.340;10.776;2023-04-21T01:10:50;30.47;;;14.20;;
36995;SDS011;22905;50.340;10.776;2023-04-21T01:15:50;32.17;;;14.77;;
36995;SDS011;22905;50.340;10.776;2023-04-21T01:20:50;33.30;;;16.37;;
36995;SDS011;22905;50.340;10.776;2023-04-21T01:25:51;32.28;;;16.38;;
36995;SDS011;22905;50.340;10.776;2023-04-21T01:30:51;28.97;;;14.87;;
36995;SDS011;22905;50.340;10.776;2023-04-21T01:35:52;28.52;;;15.25;;
36995;SDS011;22905;50.340;10.776;2023-04-21T01:40:53;33.13;;;15.70;;
36995;SDS011;22905;50.340;10.776;2023-04-21T01:45:53;34.53;;;17.10;;
36995;SDS011;22905;50.340;10.776;2023-04-21T01:50:54;34.10;;;16.13;;
36995;SDS011;22905;50.340;10.776;2023-04-21T01:55:54;33.40;;;15.80;;
36995;SDS011;22905;50.340;10.776;2023-04-21T02:00:54;29.60;;;15.23;;
36995;SDS011;22905;50.340;10.776;2023-04-21T02:05:55;31.92;;;14.70;;
36995;SDS011;22905;50.340;10.776;2023-04-21T02:10:55;36.00;;;16.63;;
36995;SDS011;22905;50.340;10.776;2023-04-21T02:15:55;34.83;;;15.45;;
36995;SDS011;22905;50.340;10.776;2023-04-21T02:20:56;28.83;;;15.87;;
36995;SDS011;22905;50.340;10.776;2023-04-21T02:25:56;26.20;;;14.70;;
36995;SDS011;22905;50.340;10.776;2023-04-21T02:30:56;30.58;;;16.85;;
36995;SDS011;22905;50.340;10.776;2023-04-21T02:35:56;34.65;;;16.73;;
36995;SDS011;22905;50.340;10.776;2023-04-21T02:40:57;30.67;;;14.97;;
36995;SDS011;22905;50.340;10.776;2023-04-21T02:45:57;33.65;;;15.02;;
36995;SDS011;22905;50.340;10.776;2023-04-21T02:50:57;34.28;;;15.88;;
36995;SDS011;22905;50.340;10.776;2023-04-21T02:55:58;31.60;;;15.83;;
36995;SDS011;22905;50.340;10.776;2023-04-21T03:01:01;34.10;;;17.75;;
36995;SDS011;22905;50.340;10.776;2023-04-21T03:06:03;30.38;;;15.85;;
36995;SDS011;22905;50.340;10.776;2023-04-21T03:11:04;32.40;;;15.20;;
36995;SDS011;22905;50.340;10.776;2023-04-21T03:16:04;35.10;;;15.30;;
36995;SDS011;22905;50.340;10.776;2023-04-21T03:21:05;30.33;;;16.13;;
36995;SDS011;22905;50.340;10.776;2023-04-21T03:26:06;35.95;;;17.42;;
36995;SDS011;22905;50.340;10.776;2023-04-21T03:31:07;32.93;;;16.40;;
36995;SDS011;22905;50.340;10.776;2023-04-21T03:36:07;30.25;;;15.35;;
36995;SDS011;22905;50.340;10.776;2023-04-21T03:41:08;29.23;;;15.30;;
36995;SDS011;22905;50.340;10.776;2023-04-21T03:46:16;35.70;;;15.48;;
36995;SDS011;22905;50.340;10.776;2023-04-21T03:51:17;46.67;;;20.00;;
36995;SDS011;22905;50.340;10.776;2023-04-21T03:56:17;39.20;;;17.57;;
36995;SDS011;22905;50.340;10.776;2023-04-21T04:01:17;33.93;;;18.40;;
36995;SDS011;22905;50.340;10.776;2023-04-21T04:06:18;32.35;;;15.15;;
36995;SDS011;22905;50.340;10.776;2023-04-21T04:11:18;35.38;;;17.20;;
36995;SDS011;22905;50.340;10.776;2023-04-21T04:16:18;41.72;;;19.50;;
36995;SDS011;22905;50.340;10.776;2023-04-21T04:21:19;45.53;;;23.73;;
36995;SDS011;22905;50.340;10.776;2023-04-21T04:26:19;51.90;;;25.47;;
36995;SDS011;22905;50.340;10.776;2023-04-21T04:31:21;47.92;;;22.67;;
36995;SDS011;22905;50.340;10.776;2023-04-21T04:36:24;41.70;;;21.17;;
36995;SDS011;22905;50.340;10.776;2023-04-21T04:41:24;44.65;;;24.45;;
36995;SDS011;22905;50.340;10.776;2023-04-21T04:46:25;41.23;;;20.80;;
36995;SDS011;22905;50.340;10.776;2023-04-21T04:51:27;38.80;;;19.10;;
36995;SDS011;22905;50.340;10.776;2023-04-21T04:56:28;44.28;;;20.42;;
36995;SDS011;22905;50.340;10.776;2023-04-21T05:01:29;32.25;;;18.70;;
36995;SDS011;22905;50.340;10.776;2023-04-21T05:06:30;46.95;;;24.67;;
36995;SDS011;22905;50.340;10.776;2023-04-21T05:11:31;50.83;;;23.92;;
36995;SDS011;22905;50.340;10.776;2023-04-21T05:16:31;35.72;;;18.83;;
36995;SDS011;22905;50.340;10.776;2023-04-21T05:21:33;36.58;;;18.83;;
36995;SDS011;22905;50.340;10.776;2023-04-21T05:26:33;35.67;;;18.80;;
36995;SDS011;22905;50.340;10.776;2023-04-21T05:31:33;30.80;;;16.23;;
36995;SDS011;22905;50.340;10.776;2023-04-21T05:36:34;28.20;;;14.90;;
36995;SDS011;22905;50.340;10.776;2023-04-21T05:41:34;28.53;;;15.07;;
36995;SDS011;22905;50.340;10.776;2023-04-21T05:46:34;29.52;;;15.85;;
36995;SDS011;22905;50.340;10.776;2023-04-21T05:51:35;30.77;;;15.15;;
36995;SDS011;22905;50.340;10.776;2023-04-21T05:56:35;26.17;;;15.10;;
36995;SDS011;22905;50.340;10.776;2023-04-21T06:01:35;26.13;;;15.02;;
36995;SDS011;22905;50.340;10.776;2023-04-21T06:06:36;29.60;;;16.10;;
36995;SDS011;22905;50.340;10.776;2023-04-21T06:11:36;29.17;;;14.87;;
36995;SDS011;22905;50.340;10.776;2023-04-21T06:16:37;26.67;;;15.83;;
36995;SDS011;22905;50.340;10.776;2023-04-21T06:21:37;29.07;;;15.13;;
36995;SDS011;22905;50.340;10.776;2023-04-21T06:26:37;27.63;;;15.40;;
36995;SDS011;22905;50.340;10.776;2023-04-21T06:31:38;27.10;;;15.00;;
36995;SDS011;22905;50.340;10.776;2023-04-21T06:36:38;26.13;;;13.68;;
36995;SDS011;22905;50.340;10.776;2023-04-21T06:41:38;28.53;;;14.37;;
36995;SDS011;22905;50.340;10.776;2023-04-21T06:46:39;25.20;;;13.50;;
36995;SDS011;22905;50.340;10.776;2023-04-21T06:51:40;26.15;;;12.25;;
36995;SDS011;22905;50.340;10.776;2023-04-21T06:56:40;25.27;;;11.93;;
36995;SDS011;22905;50.340;10.776;2023-04-21T07:01:41;24.50;;;12.60;;
36995;SDS011;22905;50.340;10.776;2023-04-21T07:06:42;26.92;;;13.52;;
36995;SDS011;22905;50.340;10.776;2023-04-21T07:11:42;23.92;;;12.00;;
36995;SDS011;22905;50.340;10.776;2023-04-21T07:16:45;27.30;;;13.70;;
36995;SDS011;22905;50.340;10.776;2023-04-21T07:21:47;25.95;;;11.52;;
36995;SDS011;22905;50.340;10.776;2023-04-21T07:26:47;24.50;;;11.98;;
36995;SDS011;22905;50.340;10.776;2023-04-21T07:31:47;26.77;;;11.73;;
36995;SDS011;22905;50.340;10.776;2023-04-21T07:36:48;22.75;;;12.38;;
36995;SDS011;22905;50.340;10.776;2023-04-21T07:41:50;23.10;;;12.23;;
36995;SDS011;22905;50.340;10.776;2023-04-21T07:46:50;25.60;;;12.03;;
36995;SDS011;22905;50.340;10.776;2023-04-21T07:51:51;24.75;;;12.13;;
36995;SDS011;22905;50.340;10.776;2023-04-21T07:56:51;21.73;;;11.60;;
36995;SDS011;22905;50.340;10.776;2023-04-21T08:01:51;22.05;;;11.43;;
36995;SDS011;22905;50.340;10.776;2023-04-21T08:06:52;23.88;;;11.90;;
36995;SDS011;22905;50.340;10.776;2023-04-21T08:11:52;23.17;;;11.75;;
36995;SDS011;22905;50.340;10.776;2023-04-21T08:16:53;18.30;;;10.23;;
36995;SDS011;22905;50.340;10.776;2023-04-21T08:21:54;22.98;;;11.35;;
36995;SDS011;22905;50.340;10.776;2023-04-21T08:26:54;18.50;;;10.20;;
36995;SDS011;22905;50.340;10.776;2023-04-21T08:31:56;18.53;;;8.43;;
36995;SDS011;22905;50.340;10.776;2023-04-21T08:36:56;26.75;;;10.95;;
36995;SDS011;22905;50.340;10.776;2023-04-21T08:41:57;20.05;;;9.45;;
36995;SDS011;22905;50.340;10.776;2023-04-21T08:46:59;23.50;;;11.07;;
36995;SDS011;22905;50.340;10.776;2023-04-21T08:52:00;16.30;;;9.57;;
36995;SDS011;22905;50.340;10.776;2023-04-21T08:57:00;13.52;;;8.13;;
36995;SDS011;22905;50.340;10.776;2023-04-21T09:07:32;20.13;;;9.40;;
36995;SDS011;22905;50.340;10.776;2023-04-21T09:12:33;16.00;;;8.70;;
36995;SDS011;22905;50.340;10.776;2023-04-21T09:17:34;12.40;;;7.90;;
36995;SDS011;22905;50.340;10.776;2023-04-21T09:22:36;12.23;;;8.02;;
36995;SDS011;22905;50.340;10.776;2023-04-21T09:27:36;13.98;;;8.15;;
36995;SDS011;22905;50.340;10.776;2023-04-21T09:32:40;17.30;;;8.53;;
36995;SDS011;22905;50.340;10.776;2023-04-21T09:37:42;15.38;;;7.55;;
36995;SDS011;22905;50.340;10.776;2023-04-21T09:42:43;16.60;;;8.70;;
36995;SDS011;22905;50.340;10.776;2023-04-21T09:47:44;13.32;;;7.38;;
36995;SDS011;22905;50.340;10.776;2023-04-21T09:52:50;11.18;;;7.30;;
36995;SDS011;22905;50.340;10.776;2023-04-21T09:57:51;14.33;;;8.00;;
36995;SDS011;22905;50.340;10.776;2023-04-21T10:03:00;15.65;;;8.13;;
36995;SDS011;22905;50.340;10.776;2023-04-21T10:08:04;11.82;;;6.97;;
36995;SDS011;22905;50.340;10.776;2023-04-21T10:13:06;12.68;;;5.93;;
36995;SDS011;22905;50.340;10.776;2023-04-21T10:18:15;10.20;;;5.22;;
36995;SDS011;22905;50.340;10.776;2023-04-21T10:23:26;10.00;;;5.82;;
36995;SDS011;22905;50.340;10.776;2023-04-21T10:28:52;7.22;;;4.55;;
36995;SDS011;22905;50.340;10.776;2023-04-21T10:39:24;6.85;;;4.97;;
36995;SDS011;22905;50.340;10.776;2023-04-21T10:44:27;12.82;;;5.53;;
36995;SDS011;22905;50.340;10.776;2023-04-21T10:49:28;10.27;;;5.78;;
36995;SDS011;22905;50.340;10.776;2023-04-21T10:54:34;8.17;;;5.27;;
36995;SDS011;22905;50.340;10.776;2023-04-21T10:59:45;9.45;;;6.22;;
36995;SDS011;22905;50.340;10.776;2023-04-21T11:04:49;11.83;;;5.23;;
36995;SDS011;22905;50.340;10.776;2023-04-21T11:10:00;10.52;;;4.60;;
36995;SDS011;22905;50.340;10.776;2023-04-21T11:15:04;12.80;;;4.90;;
36995;SDS011;22905;50.340;10.776;2023-04-21T11:20:07;9.15;;;4.70;;
36995;SDS011;22905;50.340;10.776;2023-04-21T11:25:15;9.38;;;4.57;;
36995;SDS011;22905;50.340;10.776;2023-04-21T11:30:16;10.40;;;5.28;;
36995;SDS011;22905;50.340;10.776;2023-04-21T11:35:16;15.10;;;7.90;;
36995;SDS011;22905;50.340;10.776;2023-04-21T11:40:17;7.10;;;3.83;;
36995;SDS011;22905;50.340;10.776;2023-04-21T11:45:18;10.27;;;4.38;;
36995;SDS011;22905;50.340;10.776;2023-04-21T11:50:30;6.35;;;3.50;;
36995;SDS011;22905;50.340;10.776;2023-04-21T11:55:31;10.43;;;5.47;;
36995;SDS011;22905;50.340;10.776;2023-04-21T12:00:33;7.70;;;4.60;;
36995;SDS011;22905;50.340;10.776;2023-04-21T12:05:34;7.07;;;3.83;;
36995;SDS011;22905;50.340;10.776;2023-04-21T12:10:35;6.28;;;4.18;;
36995;SDS011;22905;50.340;10.776;2023-04-21T12:15:35;9.03;;;3.20;;
36995;SDS011;22905;50.340;10.776;2023-04-21T12:20:35;5.37;;;2.93;;
36995;SDS011;22905;50.340;10.776;2023-04-21T12:25:36;5.97;;;3.47;;
36995;SDS011;22905;50.340;10.776;2023-04-21T12:30:37;6.60;;;3.13;;
36995;SDS011;22905;50.340;10.776;2023-04-21T12:35:37;6.40;;;3.70;;
36995;SDS011;22905;50.340;10.776;2023-04-21T12:40:38;5.90;;;3.10;;
36995;SDS011;22905;50.340;10.776;2023-04-21T12:45:38;7.13;;;3.60;;
36995;SDS011;22905;50.340;10.776;2023-04-21T12:50:38;5.67;;;3.20;;
36995;SDS011;22905;50.340;10.776;2023-04-21T12:55:39;3.47;;;2.23;;
36995;SDS011;22905;50.340;10.776;2023-04-21T13:00:39;3.10;;;2.42;;
36995;SDS011;22905;50.340;10.776;2023-04-21T13:05:40;4.32;;;2.72;;
36995;SDS011;22905;50.340;10.776;2023-04-21T13:10:40;7.80;;;2.88;;
36995;SDS011;22905;50.340;10.776;2023-04-21T13:15:41;7.70;;;3.80;;
36995;SDS011;22905;50.340;10.776;2023-04-21T13:20:41;11.32;;;2.80;;
36995;SDS011;22905;50.340;10.776;2023-04-21T13:25:41;5.35;;;2.80;;
36995;SDS011;22905;50.340;10.776;2023-04-21T13:35:44;4.85;;;3.25;;
36995;SDS011;22905;50.340;10.776;2023-04-21T13:40:44;4.80;;;2.70;;
36995;SDS011;22905;50.340;10.776;2023-04-21T13:45:45;4.68;;;2.85;;
36995;SDS011;22905;50.340;10.776;2023-04-21T13:50:47;4.57;;;2.75;;
36995;SDS011;22905;50.340;10.776;2023-04-21T13:55:47;4.82;;;2.67;;
36995;SDS011;22905;50.340;10.776;2023-04-21T14:00:48;8.13;;;2.97;;
36995;SDS011;22905;50.340;10.776;2023-04-21T14:05:48;6.97;;;2.90;;
36995;SDS011;22905;50.340;10.776;2023-04-21T14:10:49;3.30;;;1.97;;
36995;SDS011;22905;50.340;10.776;2023-04-21T14:15:49;5.77;;;2.67;;
36995;SDS011;22905;50.340;10.776;2023-04-21T14:20:49;4.50;;;2.63;;
36995;SDS011;22905;50.340;10.776;2023-04-21T14:25:49;6.85;;;3.10;;
36995;SDS011;22905;50.340;10.776;2023-04-21T14:30:50;7.15;;;2.33;;
36995;SDS011;22905;50.340;10.776;2023-04-21T14:35:50;3.28;;;2.53;;
36995;SDS011;22905;50.340;10.776;2023-04-21T14:40:50;5.90;;;3.20;;
36995;SDS011;22905;50.340;10.776;2023-04-21T14:45:54;5.97;;;2.50;;
36995;SDS011;22905;50.340;10.776;2023-04-21T14:50:54;6.70;;;2.90;;
36995;SDS011;22905;50.340;10.776;2023-04-21T14:55:56;6.93;;;4.15;;
36995;SDS011;22905;50.340;10.776;2023-04-21T15:00:57;4.00;;;2.63;;
36995;SDS011;22905;50.340;10.776;2023-04-21T15:05:57;4.57;;;2.80;;
36995;SDS011;22905;50.340;10.776;2023-04-21T15:10:57;4.10;;;2.60;;
36995;SDS011;22905;50.340;10.776;2023-04-21T15:15:58;10.20;;;2.63;;
36995;SDS011;22905;50.340;10.776;2023-04-21T15:20:58;5.25;;;2.90;;
36995;SDS011;22905;50.340;10.776;2023-04-21T15:25:58;3.37;;;2.27;;
36995;SDS011;22905;50.340;10.776;2023-04-21T15:30:59;3.50;;;2.53;;
36995;SDS011;22905;50.340;10.776;2023-04-21T15:35:59;4.03;;;2.13;;
36995;SDS011;22905;50.340;10.776;2023-04-21T15:40:59;4.83;;;3.10;;
36995;SDS011;22905;50.340;10.776;2023-04-21T15:46:00;5.77;;;2.87;;
36995;SDS011;22905;50.340;10.776;2023-04-21T15:51:00;3.53;;;2.57;;
36995;SDS011;22905;50.340;10.776;2023-04-21T15:56:01;8.68;;;2.60;;
36995;SDS011;22905;50.340;10.776;2023-04-21T16:01:01;4.90;;;2.40;;
36995;SDS011;22905;50.340;10.776;2023-04-21T16:06:01;5.63;;;2.73;;
36995;SDS011;22905;50.340;10.776;2023-04-21T16:11:02;3.75;;;2.45;;
36995;SDS011;22905;50.340;10.776;2023-04-21T16:16:02;4.97;;;2.57;;
36995;SDS011;22905;50.340;10.776;2023-04-21T16:21:02;10.73;;;2.60;;
36995;SDS011;22905;50.340;10.776;2023-04-21T16:26:03;5.88;;;3.13;;
36995;SDS011;22905;50.340;10.776;2023-04-21T16:31:05;6.82;;;2.70;;
36995;SDS011;22905;50.340;10.776;2023-04-21T16:36:05;4.97;;;3.27;;
36995;SDS011;22905;50.340;10.776;2023-04-21T16:41:05;4.87;;;3.17;;
36995;SDS011;22905;50.340;10.776;2023-04-21T16:46:06;7.85;;;3.65;;
36995;SDS011;22905;50.340;10.776;2023-04-21T16:51:06;5.57;;;3.22;;
36995;SDS011;22905;50.340;10.776;2023-04-21T16:56:06;7.47;;;2.90;;
36995;SDS011;22905;50.340;10.776;2023-04-21T17:01:07;4.20;;;3.15;;
36995;SDS011;22905;50.340;10.776;2023-04-21T17:06:07;13.10;;;4.47;;
36995;SDS011;22905;50.340;10.776;2023-04-21T17:11:09;5.75;;;2.67;;
36995;SDS011;22905;50.340;10.776;2023-04-21T17:16:10;4.68;;;3.22;;
36995;SDS011;22905;50.340;10.776;2023-04-21T17:21:10;4.25;;;2.83;;
36995;SDS011;22905;50.340;10.776;2023-04-21T17:26:11;6.80;;;3.22;;
36995;SDS011;22905;50.340;10.776;2023-04-21T17:31:11;6.97;;;2.80;;
36995;SDS011;22905;50.340;10.776;2023-04-21T17:36:12;3.73;;;2.50;;
36995;SDS011;22905;50.340;10.776;2023-04-21T17:41:12;3.72;;;2.85;;
36995;SDS011;22905;50.340;10.776;2023-04-21T17:46:12;5.80;;;3.42;;
36995;SDS011;22905;50.340;10.776;2023-04-21T17:51:13;7.30;;;3.80;;
36995;SDS011;22905;50.340;10.776;2023-04-21T17:56:13;5.68;;;3.38;;
36995;SDS011;22905;50.340;10.776;2023-04-21T18:01:14;10.73;;;4.60;;
36995;SDS011;22905;50.340;10.776;2023-04-21T18:06:14;9.77;;;4.97;;
36995;SDS011;22905;50.340;10.776;2023-04-21T18:11:14;6.32;;;4.28;;
36995;SDS011;22905;50.340;10.776;2023-04-21T18:16:15;8.50;;;3.65;;
36995;SDS011;22905;50.340;10.776;2023-04-21T18:21:15;11.18;;;3.63;;
36995;SDS011;22905;50.340;10.776;2023-04-21T18:26:15;5.03;;;3.67;;
36995;SDS011;22905;50.340;10.776;2023-04-21T18:31:16;8.15;;;4.65;;
36995;SDS011;22905;50.340;10.776;2023-04-21T18:36:16;9.05;;;3.97;;
36995;SDS011;22905;50.340;10.776;2023-04-21T18:41:16;8.23;;;3.60;;
36995;SDS011;22905;50.340;10.776;2023-04-21T18:46:17;9.57;;;4.38;;
36995;SDS011;22905;50.340;10.776;2023-04-21T18:51:17;7.43;;;4.20;;
36995;SDS011;22905;50.340;10.776;2023-04-21T18:56:18;7.30;;;3.73;;
36995;SDS011;22905;50.340;10.776;2023-04-21T19:01:18;10.67;;;4.57;;
36995;SDS011;22905;50.340;10.776;2023-04-21T19:06:18;5.97;;;4.13;;
36995;SDS011;22905;50.340;10.776;2023-04-21T19:11:19;8.43;;;4.70;;
36995;SDS011;22905;50.340;10.776;2023-04-21T19:16:19;9.13;;;4.75;;
36995;SDS011;22905;50.340;10.776;2023-04-21T19:21:20;8.10;;;4.68;;
36995;SDS011;22905;50.340;10.776;2023-04-21T19:26:20;8.77;;;3.97;;
36995;SDS011;22905;50.340;10.776;2023-04-21T19:31:20;9.52;;;4.43;;
36995;SDS011;22905;50.340;10.776;2023-04-21T19:36:23;6.63;;;3.90;;
36995;SDS011;22905;50.340;10.776;2023-04-21T19:41:23;5.25;;;3.88;;
36995;SDS011;22905;50.340;10.776;2023-04-21T19:46:24;8.15;;;4.90;;
36995;SDS011;22905;50.340;10.776;2023-04-21T19:51:24;10.10;;;4.85;;
36995;SDS011;22905;50.340;10.776;2023-04-21T19:56:24;6.00;;;3.87;;
36995;SDS011;22905;50.340;10.776;2023-04-21T20:01:24;6.43;;;3.57;;
36995;SDS011;22905;50.340;10.776;2023-04-21T20:06:25;5.68;;;3.55;;
36995;SDS011;22905;50.340;10.776;2023-04-21T20:11:26;7.88;;;4.53;;
36995;SDS011;22905;50.340;10.776;2023-04-21T20:16:26;8.93;;;3.70;;
36995;SDS011;22905;50.340;10.776;2023-04-21T20:21:26;5.07;;;3.55;;
36995;SDS011;22905;50.340;10.776;2023-04-21T20:26:27;7.03;;;4.18;;
36995;SDS011;22905;50.340;10.776;2023-04-21T20:31:28;7.70;;;4.93;;
36995;SDS011;22905;50.340;10.776;2023-04-21T20:36:28;10.73;;;6.27;;
36995;SDS011;22905;50.340;10.776;2023-04-21T20:41:28;10.03;;;6.00;;
36995;SDS011;22905;50.340;10.776;2023-04-21T20:46:30;29.88;;;14.02;;
36995;SDS011;22905;50.340;10.776;2023-04-21T20:51:30;22.77;;;10.93;;
36995;SDS011;22905;50.340;10.776;2023-04-21T20:56:32;31.80;;;14.13;;
36995;SDS011;22905;50.340;10.776;2023-04-21T21:01:32;23.03;;;11.20;;
36995;SDS011;22905;50.340;10.776;2023-04-21T21:06:37;23.73;;;10.77;;
36995;SDS011;22905;50.340;10.776;2023-04-21T21:11:38;21.73;;;10.47;;
36995;SDS011;22905;50.340;10.776;2023-04-21T21:16:38;23.20;;;12.07;;
36995;SDS011;22905;50.340;10.776;2023-04-21T21:21:38;24.63;;;11.30;;
36995;SDS011;22905;50.340;10.776;2023-04-21T21:26:39;18.52;;;9.82;;
36995;SDS011;22905;50.340;10.776;2023-04-21T21:31:39;27.57;;;11.90;;
36995;SDS011;22905;50.340;10.776;2023-04-21T21:36:39;24.30;;;11.32;;
36995;SDS011;22905;50.340;10.776;2023-04-21T21:41:40;19.33;;;9.50;;
36995;SDS011;22905;50.340;10.776;2023-04-21T21:46:40;19.50;;;8.53;;
36995;SDS011;22905;50.340;10.776;2023-04-21T21:51:41;16.17;;;7.45;;
36995;SDS011;22905;50.340;10.776;2023-04-21T21:56:41;17.25;;;6.47;;
36995;SDS011;22905;50.340;10.776;2023-04-21T22:01:41;9.55;;;5.80;;
36995;SDS011;22905;50.340;10.776;2023-04-21T22:06:42;7.32;;;4.78;;
36995;SDS011;22905;50.340;10.776;2023-04-21T22:11:44;8.60;;;4.67;;
36995;SDS011;22905;50.340;10.776;2023-04-21T22:16:45;8.30;;;4.75;;
36995;SDS011;22905;50.340;10.776;2023-04-21T22:21:45;7.25;;;3.95;;
36995;SDS011;22905;50.340;10.776;2023-04-21T22:26:46;15.20;;;4.40;;
36995;SDS011;22905;50.340;10.776;2023-04-21T22:31:46;7.53;;;4.18;;
36995;SDS011;22905;50.340;10.776;2023-04-21T22:36:46;14.53;;;4.57;;
36995;SDS011;22905;50.340;10.776;2023-04-21T22:41:47;6.70;;;3.90;;
36995;SDS011;22905;50.340;10.776;2023-04-21T22:46:47;6.90;;;4.27;;
36995;SDS011;22905;50.340;10.776;2023-04-21T22:51:48;7.30;;;3.67;;
36995;SDS011;22905;50.340;10.776;2023-04-21T22:56:49;7.90;;;4.68;;
36995;SDS011;22905;50.340;10.776;2023-04-21T23:01:49;8.30;;;4.07;;
36995;SDS011;22905;50.340;10.776;2023-04-21T23:06:49;5.83;;;4.03;;
36995;SDS011;22905;50.340;10.776;2023-04-21T23:11:50;7.10;;;3.50;;
36995;SDS011;22905;50.340;10.776;2023-04-21T23:16:50;9.27;;;4.30;;
36995;SDS011;22905;50.340;10.776;2023-04-21T23:21:50;6.15;;;4.25;;
36995;SDS011;22905;50.340;10.776;2023-04-21T23:26:51;10.03;;;3.77;;
36995;SDS011;22905;50.340;10.776;2023-04-21T23:31:51;11.20;;;5.17;;
36995;SDS011;22905;50.340;10.776;2023-04-21T23:36:51;7.40;;;4.30;;
36995;SDS011;22905;50.340;10.776;2023-04-21T23:41:52;9.02;;;4.90;;
36995;SDS011;22905;50.340;10.776;2023-04-21T23:46:52;9.13;;;4.05;;
36995;SDS011;22905;50.340;10.776;2023-04-21T23:51:52;9.20;;;4.35;;
36995;SDS011;22905;50.340;10.776;2023-04-21T23:56:53;12.33;;;5.17;;
